BOX586 VTBS-ZGSZ
Flight info
| Callsign | BOX586 |
|---|---|
| Flight time | 2h 5m |
| Altitude | 37000 |
| Route | SELKA1E SELKA A1 SANOT Y15 GUROK A202 VILAO/K0883F370 A202 ASSAD/K0883S1130 A202 AGPOR W71 LH R200 BIGRO W552 LOVTA LOVTA4 |
| Aircraft | B77L/H-SDE1E2E3FGHIJ2J3J4J5M1RWXYZ/LB1D1 |
Departure
| Time | 2026-04-15 21:57 |
|---|---|
| Airport | Suvarnabhumi Airport (VTBS) |
Arrival
| Time | 2026-04-16 00:02 |
|---|---|
| Airport | Shenzhen Bao'an International Airport (ZGSZ) |
| Time | Latitude | Longitude | Altitude | Speed | Heading |
|---|---|---|---|---|---|
| 2026-04-15 21:40 | 13.70819 | 100.74825 | 18 ft | 0 kts | 104° |
| 2026-04-15 21:46 | 13.70821 | 100.74818 | 18 ft | 2 kts | 104° |
| 2026-04-15 21:46 | 13.70825 | 100.74802 | 18 ft | 2 kts | 104° |
| 2026-04-15 21:47 | 13.70829 | 100.74787 | 18 ft | 2 kts | 103° |
| 2026-04-15 21:47 | 13.70831 | 100.74774 | 18 ft | 2 kts | 88° |
| 2026-04-15 21:47 | 13.70830 | 100.74765 | 18 ft | 2 kts | 77° |
| 2026-04-15 21:47 | 13.70825 | 100.74750 | 18 ft | 2 kts | 63° |
| 2026-04-15 21:48 | 13.70817 | 100.74737 | 18 ft | 2 kts | 48° |
| 2026-04-15 21:48 | 13.70806 | 100.74727 | 18 ft | 2 kts | 33° |
| 2026-04-15 21:48 | 13.70793 | 100.74720 | 18 ft | 1 kts | 18° |
| 2026-04-15 21:48 | 13.70791 | 100.74719 | 18 ft | 0 kts | 17° |
| 2026-04-15 21:51 | 13.70793 | 100.74719 | 18 ft | 1 kts | 13° |
| 2026-04-15 21:52 | 13.70819 | 100.74717 | 18 ft | 7 kts | 345° |
| 2026-04-15 21:52 | 13.70846 | 100.74655 | 18 ft | 14 kts | 242° |
| 2026-04-15 21:52 | 13.70737 | 100.74603 | 18 ft | 20 kts | 194° |
| 2026-04-15 21:52 | 13.70578 | 100.74562 | 18 ft | 25 kts | 194° |
| 2026-04-15 21:53 | 13.70399 | 100.74515 | 18 ft | 19 kts | 194° |
| 2026-04-15 21:53 | 13.70337 | 100.74448 | 18 ft | 4 kts | 277° |
| 2026-04-15 21:53 | 13.70338 | 100.74441 | 18 ft | 0 kts | 279° |
| 2026-04-15 21:54 | 13.70344 | 100.74395 | 18 ft | 15 kts | 274° |
| 2026-04-15 21:54 | 13.70251 | 100.74282 | 19 ft | 33 kts | 195° |
| 2026-04-15 21:54 | 13.70037 | 100.74229 | 21 ft | 20 kts | 193° |
| 2026-04-15 21:54 | 13.69942 | 100.74218 | 21 ft | 8 kts | 142° |
| 2026-04-15 21:55 | 13.69919 | 100.74274 | 21 ft | 8 kts | 102° |
| 2026-04-15 21:55 | 13.69904 | 100.74335 | 21 ft | 8 kts | 98° |
| 2026-04-15 21:55 | 13.69931 | 100.74386 | 21 ft | 9 kts | 30° |
| 2026-04-15 21:55 | 13.70006 | 100.74412 | 20 ft | 12 kts | 16° |
| 2026-04-15 21:56 | 13.70106 | 100.74439 | 20 ft | 17 kts | 13° |
| 2026-04-15 21:56 | 13.70225 | 100.74415 | 19 ft | 19 kts | 297° |
| 2026-04-15 21:56 | 13.70232 | 100.74293 | 19 ft | 19 kts | 220° |
| 2026-04-15 21:56 | 13.69938 | 100.74205 | 21 ft | 89 kts | 194° |
| 2026-04-15 21:57 | 13.69019 | 100.73966 | 117 ft | 172 kts | 194° |
| 2026-04-15 21:57 | 13.67851 | 100.73664 | 1319 ft | 175 kts | 195° |
| 2026-04-15 21:57 | 13.66798 | 100.73383 | 2469 ft | 164 kts | 191° |
| 2026-04-15 21:57 | 13.65618 | 100.73179 | 3101 ft | 183 kts | 190° |
| 2026-04-15 21:58 | 13.64304 | 100.72942 | 3798 ft | 202 kts | 186° |
| 2026-04-15 21:58 | 13.62870 | 100.73226 | 4538 ft | 224 kts | 149° |
| 2026-04-15 21:58 | 13.61827 | 100.74460 | 5275 ft | 248 kts | 112° |
| 2026-04-15 21:58 | 13.61701 | 100.76277 | 6051 ft | 273 kts | 77° |
| 2026-04-15 21:59 | 13.62599 | 100.78032 | 7131 ft | 283 kts | 56° |
| 2026-04-15 21:59 | 13.63729 | 100.79608 | 8536 ft | 279 kts | 55° |
| 2026-04-15 21:59 | 13.64871 | 100.81178 | 9704 ft | 282 kts | 54° |
| 2026-04-15 21:59 | 13.66077 | 100.82835 | 10626 ft | 297 kts | 54° |
| 2026-04-15 22:00 | 13.67346 | 100.84576 | 11289 ft | 319 kts | 54° |
| 2026-04-15 22:00 | 13.68733 | 100.86481 | 11979 ft | 341 kts | 54° |
| 2026-04-15 22:00 | 13.70191 | 100.88487 | 12642 ft | 362 kts | 53° |
| 2026-04-15 22:00 | 13.71743 | 100.90613 | 13365 ft | 380 kts | 53° |
| 2026-04-15 22:01 | 13.73359 | 100.92831 | 14125 ft | 397 kts | 53° |
| 2026-04-15 22:01 | 13.75023 | 100.95124 | 15018 ft | 406 kts | 53° |
| 2026-04-15 22:01 | 13.76726 | 100.97470 | 16137 ft | 409 kts | 53° |
| 2026-04-15 22:01 | 13.78427 | 100.99809 | 17169 ft | 413 kts | 53° |
| 2026-04-15 22:02 | 13.80163 | 101.02192 | 18102 ft | 420 kts | 53° |
| 2026-04-15 22:02 | 13.81912 | 101.04596 | 18946 ft | 427 kts | 53° |
| 2026-04-15 22:02 | 13.83702 | 101.07050 | 19809 ft | 434 kts | 53° |
| 2026-04-15 22:02 | 13.85512 | 101.09538 | 20630 ft | 440 kts | 53° |
| 2026-04-15 22:03 | 13.87374 | 101.12099 | 21448 ft | 446 kts | 52° |
| 2026-04-15 22:03 | 13.89238 | 101.14668 | 22237 ft | 453 kts | 52° |
| 2026-04-15 22:03 | 13.91112 | 101.17247 | 22996 ft | 459 kts | 52° |
| 2026-04-15 22:03 | 13.93032 | 101.19887 | 23727 ft | 465 kts | 52° |
| 2026-04-15 22:04 | 13.94998 | 101.22592 | 24467 ft | 472 kts | 52° |
| 2026-04-15 22:04 | 13.96989 | 101.25335 | 25194 ft | 479 kts | 52° |
| 2026-04-15 22:04 | 13.98987 | 101.28091 | 25919 ft | 486 kts | 52° |
| 2026-04-15 22:04 | 14.01010 | 101.30880 | 26654 ft | 492 kts | 52° |
| 2026-04-15 22:05 | 14.03057 | 101.33705 | 27397 ft | 499 kts | 52° |
| 2026-04-15 22:05 | 14.05137 | 101.36575 | 28129 ft | 505 kts | 52° |
| 2026-04-15 22:05 | 14.07266 | 101.39512 | 28841 ft | 512 kts | 52° |
| 2026-04-15 22:05 | 14.09392 | 101.42448 | 29680 ft | 515 kts | 52° |
| 2026-04-15 22:06 | 14.11509 | 101.45373 | 30788 ft | 513 kts | 52° |
| 2026-04-15 22:06 | 14.13627 | 101.48300 | 31925 ft | 508 kts | 52° |
| 2026-04-15 22:06 | 14.15727 | 101.51205 | 32971 ft | 505 kts | 52° |
| 2026-04-15 22:06 | 14.17806 | 101.54081 | 33997 ft | 504 kts | 52° |
| 2026-04-15 22:07 | 14.19920 | 101.57005 | 35105 ft | 501 kts | 52° |
| 2026-04-15 22:07 | 14.21993 | 101.59875 | 36178 ft | 497 kts | 52° |
| 2026-04-15 22:07 | 14.24049 | 101.62721 | 36826 ft | 500 kts | 52° |
| 2026-04-15 22:08 | 14.28191 | 101.68458 | 36874 ft | 499 kts | 52° |
| 2026-04-15 22:08 | 14.32340 | 101.74210 | 36869 ft | 498 kts | 52° |
| 2026-04-15 22:09 | 14.36451 | 101.79909 | 36870 ft | 497 kts | 52° |
| 2026-04-15 22:09 | 14.40585 | 101.85644 | 36871 ft | 499 kts | 52° |
| 2026-04-15 22:10 | 14.44716 | 101.91376 | 36870 ft | 499 kts | 52° |
| 2026-04-15 22:10 | 14.48869 | 101.97147 | 36863 ft | 498 kts | 52° |
| 2026-04-15 22:11 | 14.52995 | 102.02882 | 36856 ft | 498 kts | 52° |
| 2026-04-15 22:11 | 14.57122 | 102.08627 | 36854 ft | 497 kts | 52° |
| 2026-04-15 22:12 | 14.61248 | 102.14366 | 36851 ft | 498 kts | 52° |
| 2026-04-15 22:12 | 14.65365 | 102.20104 | 36848 ft | 498 kts | 52° |
| 2026-04-15 22:13 | 14.69476 | 102.25839 | 36845 ft | 498 kts | 52° |
| 2026-04-15 22:13 | 14.73587 | 102.31576 | 36844 ft | 499 kts | 52° |
| 2026-04-15 22:14 | 14.77712 | 102.37335 | 36843 ft | 498 kts | 52° |
| 2026-04-15 22:14 | 14.81827 | 102.43089 | 36842 ft | 498 kts | 52° |
| 2026-04-15 22:15 | 14.85946 | 102.48851 | 36843 ft | 499 kts | 52° |
| 2026-04-15 22:15 | 14.90083 | 102.54647 | 36841 ft | 499 kts | 52° |
| 2026-04-15 22:16 | 14.94178 | 102.60385 | 36841 ft | 499 kts | 52° |
| 2026-04-15 22:16 | 14.98302 | 102.66167 | 36836 ft | 499 kts | 52° |
| 2026-04-15 22:17 | 15.02417 | 102.71941 | 36831 ft | 499 kts | 52° |
| 2026-04-15 22:17 | 15.06542 | 102.77734 | 36831 ft | 499 kts | 52° |
| 2026-04-15 22:18 | 15.10641 | 102.83496 | 36831 ft | 499 kts | 52° |
| 2026-04-15 22:18 | 15.14775 | 102.89311 | 36830 ft | 500 kts | 52° |
| 2026-04-15 22:19 | 15.18903 | 102.95119 | 36830 ft | 501 kts | 52° |
| 2026-04-15 22:19 | 15.23019 | 103.00917 | 36833 ft | 501 kts | 52° |
| 2026-04-15 22:20 | 15.27126 | 103.06713 | 36830 ft | 500 kts | 52° |
| 2026-04-15 22:20 | 15.31237 | 103.12511 | 36828 ft | 500 kts | 52° |
| 2026-04-15 22:21 | 15.35367 | 103.18341 | 36828 ft | 500 kts | 52° |
| 2026-04-15 22:21 | 15.39478 | 103.24139 | 36829 ft | 500 kts | 52° |
| 2026-04-15 22:22 | 15.43591 | 103.29954 | 36828 ft | 500 kts | 52° |
| 2026-04-15 22:22 | 15.47678 | 103.35737 | 36829 ft | 500 kts | 52° |
| 2026-04-15 22:23 | 15.51778 | 103.41542 | 36829 ft | 500 kts | 52° |
| 2026-04-15 22:23 | 15.55890 | 103.47372 | 36827 ft | 500 kts | 52° |
| 2026-04-15 22:24 | 15.59965 | 103.53153 | 36825 ft | 499 kts | 52° |
| 2026-04-15 22:24 | 15.64085 | 103.59001 | 36826 ft | 499 kts | 52° |
| 2026-04-15 22:25 | 15.68156 | 103.64785 | 36828 ft | 499 kts | 52° |
| 2026-04-15 22:25 | 15.72245 | 103.70601 | 36828 ft | 500 kts | 53° |
| 2026-04-15 22:26 | 15.76350 | 103.76445 | 36833 ft | 500 kts | 53° |
| 2026-04-15 22:26 | 15.80440 | 103.82266 | 36830 ft | 499 kts | 53° |
| 2026-04-15 22:27 | 15.84530 | 103.88094 | 36828 ft | 500 kts | 53° |
| 2026-04-15 22:27 | 15.88604 | 103.93903 | 36827 ft | 500 kts | 53° |
| 2026-04-15 22:28 | 15.92686 | 103.99728 | 36826 ft | 499 kts | 53° |
| 2026-04-15 22:28 | 15.96790 | 104.05588 | 36827 ft | 499 kts | 52° |
| 2026-04-15 22:29 | 16.00862 | 104.11409 | 36829 ft | 499 kts | 52° |
| 2026-04-15 22:29 | 16.04937 | 104.17239 | 36834 ft | 500 kts | 52° |
| 2026-04-15 22:30 | 16.09469 | 104.22709 | 36839 ft | 499 kts | 46° |
| 2026-04-15 22:30 | 16.14155 | 104.28038 | 36844 ft | 498 kts | 46° |
| 2026-04-15 22:31 | 16.18799 | 104.33331 | 36844 ft | 499 kts | 46° |
| 2026-04-15 22:31 | 16.23459 | 104.38654 | 36845 ft | 498 kts | 46° |
| 2026-04-15 22:32 | 16.28118 | 104.43989 | 36846 ft | 499 kts | 46° |
| 2026-04-15 22:32 | 16.32780 | 104.49400 | 36846 ft | 500 kts | 46° |
| 2026-04-15 22:33 | 16.37406 | 104.54776 | 36850 ft | 499 kts | 46° |
| 2026-04-15 22:33 | 16.42045 | 104.60165 | 36850 ft | 499 kts | 46° |
| 2026-04-15 22:34 | 16.46657 | 104.65533 | 36847 ft | 499 kts | 46° |
| 2026-04-15 22:34 | 16.51282 | 104.70919 | 36846 ft | 499 kts | 46° |
| 2026-04-15 22:35 | 16.55883 | 104.76360 | 36837 ft | 499 kts | 51° |
| 2026-04-15 22:35 | 16.59750 | 104.82374 | 36841 ft | 502 kts | 56° |
| 2026-04-15 22:36 | 16.63518 | 104.88489 | 36847 ft | 501 kts | 56° |
| 2026-04-15 22:36 | 16.67294 | 104.94621 | 36852 ft | 503 kts | 56° |
| 2026-04-15 22:37 | 16.71055 | 105.00737 | 36853 ft | 501 kts | 56° |
| 2026-04-15 22:37 | 16.74828 | 105.06874 | 36855 ft | 502 kts | 56° |
| 2026-04-15 22:38 | 16.78591 | 105.12997 | 36858 ft | 503 kts | 56° |
| 2026-04-15 22:38 | 16.82365 | 105.19144 | 36861 ft | 503 kts | 56° |
| 2026-04-15 22:39 | 16.86108 | 105.25243 | 36867 ft | 502 kts | 56° |
| 2026-04-15 22:39 | 16.89880 | 105.31408 | 36868 ft | 502 kts | 56° |
| 2026-04-15 22:40 | 16.93623 | 105.37533 | 36872 ft | 502 kts | 56° |
| 2026-04-15 22:40 | 16.97382 | 105.43687 | 36875 ft | 503 kts | 56° |
| 2026-04-15 22:41 | 17.02999 | 105.52893 | 36873 ft | 503 kts | 56° |
| 2026-04-15 22:41 | 17.06773 | 105.59085 | 36874 ft | 502 kts | 56° |
| 2026-04-15 22:42 | 17.10512 | 105.65220 | 36876 ft | 503 kts | 56° |
| 2026-04-15 22:42 | 17.14280 | 105.71416 | 36869 ft | 504 kts | 56° |
| 2026-04-15 22:43 | 17.18021 | 105.77572 | 36872 ft | 504 kts | 56° |
| 2026-04-15 22:43 | 17.21773 | 105.83751 | 36871 ft | 504 kts | 56° |
| 2026-04-15 22:44 | 17.25521 | 105.89928 | 36869 ft | 504 kts | 56° |
| 2026-04-15 22:44 | 17.29262 | 105.96101 | 36877 ft | 502 kts | 56° |
| 2026-04-15 22:45 | 17.33017 | 106.02303 | 36882 ft | 502 kts | 56° |
| 2026-04-15 22:45 | 17.36742 | 106.08459 | 36897 ft | 503 kts | 56° |
| 2026-04-15 22:46 | 17.40512 | 106.14590 | 36908 ft | 503 kts | 56° |
| 2026-04-15 22:46 | 17.44320 | 106.20760 | 36907 ft | 503 kts | 56° |
| 2026-04-15 22:47 | 17.48109 | 106.26907 | 36897 ft | 502 kts | 56° |
| 2026-04-15 22:47 | 17.51888 | 106.33044 | 36864 ft | 504 kts | 56° |
| 2026-04-15 22:48 | 17.55676 | 106.39208 | 36837 ft | 503 kts | 56° |
| 2026-04-15 22:48 | 17.59467 | 106.45384 | 36829 ft | 504 kts | 56° |
| 2026-04-15 22:49 | 17.63251 | 106.51555 | 36819 ft | 503 kts | 56° |
| 2026-04-15 22:49 | 17.67032 | 106.57718 | 36817 ft | 503 kts | 56° |
| 2026-04-15 22:50 | 17.70802 | 106.63889 | 36816 ft | 503 kts | 56° |
| 2026-04-15 22:50 | 17.74563 | 106.70060 | 36810 ft | 504 kts | 56° |
| 2026-04-15 22:51 | 17.78319 | 106.76228 | 36807 ft | 503 kts | 56° |
| 2026-04-15 22:51 | 17.82086 | 106.82419 | 36806 ft | 503 kts | 56° |
| 2026-04-15 22:52 | 17.85833 | 106.88587 | 36806 ft | 502 kts | 56° |
| 2026-04-15 22:52 | 17.89590 | 106.94769 | 36806 ft | 502 kts | 56° |
| 2026-04-15 22:53 | 17.93364 | 107.00942 | 36807 ft | 503 kts | 56° |
| 2026-04-15 22:53 | 17.97136 | 107.07121 | 36807 ft | 503 kts | 56° |
| 2026-04-15 22:54 | 18.00907 | 107.13304 | 36807 ft | 502 kts | 56° |
| 2026-04-15 22:54 | 18.04657 | 107.19459 | 36811 ft | 503 kts | 56° |
| 2026-04-15 22:55 | 18.08429 | 107.25656 | 36810 ft | 503 kts | 56° |
| 2026-04-15 22:55 | 18.12189 | 107.31851 | 36813 ft | 503 kts | 56° |
| 2026-04-15 22:56 | 18.15958 | 107.38063 | 36816 ft | 503 kts | 56° |
| 2026-04-15 22:56 | 18.19692 | 107.44231 | 36809 ft | 504 kts | 56° |
| 2026-04-15 22:57 | 18.23461 | 107.50456 | 36804 ft | 504 kts | 56° |
| 2026-04-15 22:57 | 18.27237 | 107.56696 | 36927 ft | 508 kts | 56° |
| 2026-04-15 22:58 | 18.31221 | 107.62809 | 36918 ft | 503 kts | 52° |
| 2026-04-15 22:58 | 18.35316 | 107.68762 | 36914 ft | 503 kts | 53° |
| 2026-04-15 22:59 | 18.39412 | 107.74723 | 36916 ft | 503 kts | 53° |
| 2026-04-15 22:59 | 18.43513 | 107.80694 | 36921 ft | 504 kts | 53° |
| 2026-04-15 23:00 | 18.47617 | 107.86675 | 36923 ft | 503 kts | 53° |
| 2026-04-15 23:00 | 18.51702 | 107.92632 | 36924 ft | 503 kts | 53° |
| 2026-04-15 23:01 | 18.55787 | 107.98594 | 36922 ft | 504 kts | 53° |
| 2026-04-15 23:01 | 18.59886 | 108.04585 | 36931 ft | 503 kts | 53° |
| 2026-04-15 23:02 | 18.63977 | 108.10570 | 36930 ft | 504 kts | 53° |
| 2026-04-15 23:02 | 18.68080 | 108.16572 | 36928 ft | 505 kts | 53° |
| 2026-04-15 23:03 | 18.72161 | 108.22555 | 36940 ft | 505 kts | 53° |
| 2026-04-15 23:03 | 18.76261 | 108.28576 | 36930 ft | 505 kts | 53° |
| 2026-04-15 23:04 | 18.80372 | 108.34612 | 36931 ft | 505 kts | 53° |
| 2026-04-15 23:04 | 18.84446 | 108.40601 | 36930 ft | 504 kts | 53° |
| 2026-04-15 23:05 | 18.88543 | 108.46630 | 36933 ft | 503 kts | 53° |
| 2026-04-15 23:05 | 18.92618 | 108.52628 | 36932 ft | 504 kts | 53° |
| 2026-04-15 23:06 | 18.96676 | 108.58611 | 36936 ft | 504 kts | 53° |
| 2026-04-15 23:06 | 19.00754 | 108.64627 | 36939 ft | 504 kts | 53° |
| 2026-04-15 23:07 | 19.04854 | 108.70683 | 36936 ft | 505 kts | 53° |
| 2026-04-15 23:07 | 19.08924 | 108.76698 | 36940 ft | 505 kts | 53° |
| 2026-04-15 23:08 | 19.13000 | 108.82729 | 36940 ft | 505 kts | 53° |
| 2026-04-15 23:08 | 19.17072 | 108.88760 | 36939 ft | 504 kts | 53° |
| 2026-04-15 23:09 | 19.21166 | 108.94829 | 36946 ft | 505 kts | 53° |
| 2026-04-15 23:09 | 19.25242 | 109.00879 | 36949 ft | 505 kts | 53° |
| 2026-04-15 23:10 | 19.29300 | 109.06910 | 36957 ft | 505 kts | 53° |
| 2026-04-15 23:10 | 19.33386 | 109.12987 | 36969 ft | 505 kts | 53° |
| 2026-04-15 23:11 | 19.37455 | 109.19048 | 36978 ft | 505 kts | 53° |
| 2026-04-15 23:11 | 19.41503 | 109.25080 | 36984 ft | 505 kts | 53° |
| 2026-04-15 23:12 | 19.45596 | 109.31184 | 36980 ft | 504 kts | 53° |
| 2026-04-15 23:12 | 19.49655 | 109.37244 | 36969 ft | 507 kts | 53° |
| 2026-04-15 23:13 | 19.53731 | 109.43336 | 36971 ft | 507 kts | 53° |
| 2026-04-15 23:13 | 19.57809 | 109.49436 | 36963 ft | 507 kts | 53° |
| 2026-04-15 23:14 | 19.61868 | 109.55515 | 36964 ft | 507 kts | 53° |
| 2026-04-15 23:14 | 19.65961 | 109.61648 | 36962 ft | 508 kts | 53° |
| 2026-04-15 23:15 | 19.70017 | 109.67731 | 36955 ft | 507 kts | 54° |
| 2026-04-15 23:15 | 19.74105 | 109.73872 | 36952 ft | 508 kts | 54° |
| 2026-04-15 23:16 | 19.78169 | 109.79982 | 36951 ft | 507 kts | 54° |
| 2026-04-15 23:16 | 19.82213 | 109.86076 | 36954 ft | 508 kts | 54° |
| 2026-04-15 23:17 | 19.86304 | 109.92241 | 36956 ft | 508 kts | 54° |
| 2026-04-15 23:17 | 19.90373 | 109.98382 | 36956 ft | 508 kts | 54° |
| 2026-04-15 23:18 | 19.94443 | 110.04524 | 36954 ft | 508 kts | 54° |
| 2026-04-15 23:18 | 19.98504 | 110.10659 | 36959 ft | 509 kts | 54° |
| 2026-04-15 23:19 | 20.02559 | 110.16793 | 36957 ft | 509 kts | 54° |
| 2026-04-15 23:19 | 20.06615 | 110.22935 | 36958 ft | 510 kts | 54° |
| 2026-04-15 23:20 | 20.10689 | 110.29113 | 36956 ft | 509 kts | 54° |
| 2026-04-15 23:20 | 20.14780 | 110.35323 | 36955 ft | 510 kts | 54° |
| 2026-04-15 23:21 | 20.18835 | 110.41484 | 36959 ft | 510 kts | 54° |
| 2026-04-15 23:21 | 20.22910 | 110.47682 | 36960 ft | 510 kts | 54° |
| 2026-04-15 23:22 | 20.26963 | 110.53851 | 36961 ft | 510 kts | 54° |
| 2026-04-15 23:22 | 20.31024 | 110.60042 | 36965 ft | 511 kts | 54° |
| 2026-04-15 23:23 | 20.35077 | 110.66225 | 36961 ft | 511 kts | 54° |
| 2026-04-15 23:23 | 20.39144 | 110.72434 | 36953 ft | 511 kts | 54° |
| 2026-04-15 23:24 | 20.43229 | 110.78682 | 36952 ft | 511 kts | 54° |
| 2026-04-15 23:24 | 20.47272 | 110.84871 | 36967 ft | 512 kts | 54° |
| 2026-04-15 23:25 | 20.51346 | 110.91114 | 36968 ft | 511 kts | 54° |
| 2026-04-15 23:25 | 20.55390 | 110.97318 | 36982 ft | 512 kts | 54° |
| 2026-04-15 23:26 | 20.59475 | 111.03585 | 36981 ft | 512 kts | 54° |
| 2026-04-15 23:26 | 20.63514 | 111.09793 | 36981 ft | 512 kts | 54° |
| 2026-04-15 23:27 | 20.67576 | 111.16045 | 36987 ft | 512 kts | 54° |
| 2026-04-15 23:27 | 20.71635 | 111.22298 | 36987 ft | 513 kts | 54° |
| 2026-04-15 23:28 | 20.75710 | 111.28578 | 36992 ft | 513 kts | 54° |
| 2026-04-15 23:28 | 20.79764 | 111.34840 | 36997 ft | 513 kts | 54° |
| 2026-04-15 23:29 | 20.83815 | 111.41104 | 36997 ft | 513 kts | 54° |
| 2026-04-15 23:29 | 20.87878 | 111.47394 | 37002 ft | 514 kts | 54° |
| 2026-04-15 23:30 | 20.91945 | 111.53694 | 37009 ft | 513 kts | 54° |
| 2026-04-15 23:30 | 20.95984 | 111.59956 | 37003 ft | 513 kts | 54° |
| 2026-04-15 23:31 | 21.00016 | 111.66216 | 37007 ft | 513 kts | 54° |
| 2026-04-15 23:31 | 21.04057 | 111.72499 | 37006 ft | 513 kts | 54° |
| 2026-04-15 23:32 | 21.08088 | 111.78771 | 37003 ft | 513 kts | 54° |
| 2026-04-15 23:32 | 21.12148 | 111.85096 | 36996 ft | 514 kts | 54° |
| 2026-04-15 23:33 | 21.16190 | 111.91402 | 36990 ft | 514 kts | 54° |
| 2026-04-15 23:33 | 21.20230 | 111.97710 | 36995 ft | 514 kts | 54° |
| 2026-04-15 23:34 | 21.22248 | 112.00864 | 36721 ft | 508 kts | 54° |
| 2026-04-15 23:34 | 21.24224 | 112.03953 | 35933 ft | 510 kts | 54° |
| 2026-04-15 23:34 | 21.26230 | 112.07090 | 35136 ft | 511 kts | 54° |
| 2026-04-15 23:36 | 21.38323 | 112.26045 | 30335 ft | 517 kts | 55° |
| 2026-04-15 23:36 | 21.40358 | 112.29241 | 29857 ft | 510 kts | 55° |
| 2026-04-15 23:36 | 21.42329 | 112.32341 | 29356 ft | 505 kts | 55° |
| 2026-04-15 23:36 | 21.44306 | 112.35449 | 28815 ft | 500 kts | 55° |
| 2026-04-15 23:37 | 21.46234 | 112.38483 | 28301 ft | 497 kts | 55° |
| 2026-04-15 23:37 | 21.48204 | 112.41583 | 27813 ft | 501 kts | 55° |
| 2026-04-15 23:37 | 21.50151 | 112.44651 | 27330 ft | 499 kts | 55° |
| 2026-04-15 23:37 | 21.52108 | 112.47732 | 26843 ft | 494 kts | 55° |
| 2026-04-15 23:38 | 21.54010 | 112.50730 | 26367 ft | 488 kts | 55° |
| 2026-04-15 23:38 | 21.55931 | 112.53741 | 25880 ft | 482 kts | 53° |
| 2026-04-15 23:38 | 21.58056 | 112.56449 | 25401 ft | 475 kts | 44° |
| 2026-04-15 23:38 | 21.60404 | 112.58934 | 24923 ft | 471 kts | 43° |
| 2026-04-15 23:39 | 21.62744 | 112.61366 | 24444 ft | 467 kts | 43° |
| 2026-04-15 23:39 | 21.65071 | 112.63784 | 23788 ft | 461 kts | 43° |
| 2026-04-15 23:39 | 21.67353 | 112.66157 | 23302 ft | 457 kts | 43° |
| 2026-04-15 23:39 | 21.69656 | 112.68552 | 22967 ft | 458 kts | 43° |
| 2026-04-15 23:40 | 21.71949 | 112.70937 | 22715 ft | 459 kts | 43° |
| 2026-04-15 23:40 | 21.74232 | 112.73314 | 22304 ft | 457 kts | 43° |
| 2026-04-15 23:40 | 21.76514 | 112.75690 | 21831 ft | 453 kts | 42° |
| 2026-04-15 23:40 | 21.78913 | 112.77895 | 21361 ft | 447 kts | 36° |
| 2026-04-15 23:41 | 21.81354 | 112.79932 | 20912 ft | 443 kts | 36° |
| 2026-04-15 23:41 | 21.83792 | 112.81957 | 20479 ft | 440 kts | 36° |
| 2026-04-15 23:41 | 21.86200 | 112.83957 | 20053 ft | 437 kts | 36° |
| 2026-04-15 23:41 | 21.88579 | 112.85935 | 19630 ft | 434 kts | 36° |
| 2026-04-15 23:42 | 21.90981 | 112.87930 | 19201 ft | 431 kts | 36° |
| 2026-04-15 23:42 | 21.93354 | 112.89905 | 18774 ft | 429 kts | 36° |
| 2026-04-15 23:42 | 21.95707 | 112.91866 | 18349 ft | 426 kts | 36° |
| 2026-04-15 23:42 | 21.98055 | 112.93823 | 17921 ft | 424 kts | 36° |
| 2026-04-15 23:43 | 22.00369 | 112.95750 | 17498 ft | 421 kts | 36° |
| 2026-04-15 23:43 | 22.02710 | 112.97700 | 17067 ft | 418 kts | 36° |
| 2026-04-15 23:43 | 22.05029 | 112.99595 | 16640 ft | 415 kts | 33° |
| 2026-04-15 23:43 | 22.07392 | 113.01352 | 16216 ft | 413 kts | 32° |
| 2026-04-15 23:44 | 22.09787 | 113.03110 | 15783 ft | 411 kts | 32° |
| 2026-04-15 23:44 | 22.12129 | 113.04826 | 15352 ft | 408 kts | 32° |
| 2026-04-15 23:44 | 22.14479 | 113.06552 | 14915 ft | 405 kts | 32° |
| 2026-04-15 23:44 | 22.16818 | 113.08273 | 14477 ft | 401 kts | 32° |
| 2026-04-15 23:45 | 22.19096 | 113.09947 | 14080 ft | 393 kts | 32° |
| 2026-04-15 23:45 | 22.21358 | 113.11611 | 13712 ft | 384 kts | 32° |
| 2026-04-15 23:45 | 22.23546 | 113.13223 | 13386 ft | 375 kts | 32° |
| 2026-04-15 23:45 | 22.25662 | 113.14786 | 13074 ft | 367 kts | 32° |
| 2026-04-15 23:46 | 22.27752 | 113.16327 | 12764 ft | 359 kts | 32° |
| 2026-04-15 23:46 | 22.29817 | 113.17855 | 12474 ft | 351 kts | 32° |
| 2026-04-15 23:46 | 22.31835 | 113.19342 | 12188 ft | 344 kts | 32° |
| 2026-04-15 23:46 | 22.33776 | 113.20775 | 11907 ft | 338 kts | 32° |
| 2026-04-15 23:47 | 22.35721 | 113.22210 | 11622 ft | 331 kts | 32° |
| 2026-04-15 23:47 | 22.37597 | 113.23591 | 11341 ft | 326 kts | 32° |
| 2026-04-15 23:47 | 22.39467 | 113.24970 | 11063 ft | 320 kts | 32° |
| 2026-04-15 23:47 | 22.41296 | 113.26318 | 10804 ft | 315 kts | 32° |
| 2026-04-15 23:48 | 22.43091 | 113.27640 | 10545 ft | 310 kts | 32° |
| 2026-04-15 23:48 | 22.44858 | 113.28942 | 10282 ft | 305 kts | 33° |
| 2026-04-15 23:48 | 22.46592 | 113.30223 | 10019 ft | 302 kts | 33° |
| 2026-04-15 23:48 | 22.48334 | 113.31519 | 9754 ft | 301 kts | 33° |
| 2026-04-15 23:49 | 22.50050 | 113.32786 | 9493 ft | 300 kts | 33° |
| 2026-04-15 23:49 | 22.51790 | 113.34068 | 9237 ft | 297 kts | 33° |
| 2026-04-15 23:49 | 22.53480 | 113.35323 | 8992 ft | 292 kts | 33° |
| 2026-04-15 23:49 | 22.55143 | 113.36553 | 8758 ft | 288 kts | 34° |
| 2026-04-15 23:50 | 22.56786 | 113.37754 | 8523 ft | 285 kts | 33° |
| 2026-04-15 23:50 | 22.58434 | 113.38975 | 8282 ft | 284 kts | 34° |
| 2026-04-15 23:50 | 22.60061 | 113.40157 | 8042 ft | 280 kts | 34° |
| 2026-04-15 23:51 | 22.63264 | 113.42510 | 7538 ft | 277 kts | 36° |
| 2026-04-15 23:51 | 22.64763 | 113.43835 | 7282 ft | 275 kts | 36° |
| 2026-04-15 23:51 | 22.66420 | 113.44875 | 7015 ft | 274 kts | 27° |
| 2026-04-15 23:51 | 22.68119 | 113.45813 | 6780 ft | 273 kts | 27° |
| 2026-04-15 23:52 | 22.69828 | 113.46690 | 6549 ft | 271 kts | 26° |
| 2026-04-15 23:52 | 22.71542 | 113.47574 | 6322 ft | 269 kts | 25° |
| 2026-04-15 23:52 | 22.73219 | 113.48481 | 6103 ft | 266 kts | 26° |
| 2026-04-15 23:52 | 22.74853 | 113.49368 | 5904 ft | 262 kts | 27° |
| 2026-04-15 23:53 | 22.76482 | 113.50253 | 5709 ft | 258 kts | 27° |
| 2026-04-15 23:53 | 22.78074 | 113.51111 | 5525 ft | 256 kts | 26° |
| 2026-04-15 23:53 | 22.79670 | 113.51968 | 5350 ft | 254 kts | 27° |
| 2026-04-15 23:53 | 22.81278 | 113.52824 | 5153 ft | 254 kts | 27° |
| 2026-04-15 23:54 | 22.82857 | 113.53675 | 4970 ft | 253 kts | 26° |
| 2026-04-15 23:54 | 22.84431 | 113.54520 | 4776 ft | 250 kts | 26° |
| 2026-04-15 23:54 | 22.85992 | 113.55315 | 4624 ft | 244 kts | 26° |
| 2026-04-15 23:54 | 22.87476 | 113.56129 | 4409 ft | 235 kts | 27° |
| 2026-04-15 23:55 | 22.88820 | 113.57033 | 4202 ft | 225 kts | 46° |
| 2026-04-15 23:55 | 22.89601 | 113.58468 | 4027 ft | 215 kts | 77° |
| 2026-04-15 23:55 | 22.89660 | 113.60059 | 3874 ft | 212 kts | 101° |
| 2026-04-15 23:55 | 22.89390 | 113.61606 | 3751 ft | 209 kts | 104° |
| 2026-04-15 23:56 | 22.89084 | 113.63139 | 3658 ft | 206 kts | 104° |
| 2026-04-15 23:56 | 22.88806 | 113.64660 | 3562 ft | 203 kts | 104° |
| 2026-04-15 23:56 | 22.88496 | 113.66164 | 3468 ft | 202 kts | 105° |
| 2026-04-15 23:56 | 22.87987 | 113.67543 | 3391 ft | 197 kts | 130° |
| 2026-04-15 23:57 | 22.86938 | 113.68475 | 3319 ft | 192 kts | 148° |
| 2026-04-15 23:57 | 22.85749 | 113.69189 | 3327 ft | 191 kts | 153° |
| 2026-04-15 23:57 | 22.84556 | 113.69845 | 3315 ft | 193 kts | 154° |
| 2026-04-15 23:57 | 22.83344 | 113.70509 | 3298 ft | 194 kts | 154° |
| 2026-04-15 23:58 | 22.82126 | 113.71140 | 3306 ft | 193 kts | 153° |
| 2026-04-15 23:58 | 22.80927 | 113.71809 | 3297 ft | 194 kts | 153° |
| 2026-04-15 23:58 | 22.79696 | 113.72482 | 3100 ft | 195 kts | 154° |
| 2026-04-15 23:58 | 22.78501 | 113.73132 | 2852 ft | 192 kts | 154° |
| 2026-04-15 23:59 | 22.77311 | 113.73792 | 2614 ft | 191 kts | 155° |
| 2026-04-15 23:59 | 22.76109 | 113.74431 | 2355 ft | 190 kts | 154° |
| 2026-04-15 23:59 | 22.74944 | 113.75066 | 2114 ft | 187 kts | 153° |
| 2026-04-15 23:59 | 22.73773 | 113.75684 | 1850 ft | 179 kts | 153° |
| 2026-04-16 00:00 | 22.72719 | 113.76283 | 1633 ft | 161 kts | 152° |
| 2026-04-16 00:00 | 22.71829 | 113.76763 | 1443 ft | 152 kts | 154° |
| 2026-04-16 00:00 | 22.70900 | 113.77274 | 1255 ft | 150 kts | 153° |
| 2026-04-16 00:00 | 22.69956 | 113.77767 | 1048 ft | 148 kts | 155° |
| 2026-04-16 00:01 | 22.69026 | 113.78264 | 846 ft | 148 kts | 152° |
| 2026-04-16 00:01 | 22.68112 | 113.78773 | 643 ft | 148 kts | 153° |
| 2026-04-16 00:01 | 22.67193 | 113.79274 | 457 ft | 147 kts | 151° |
| 2026-04-16 00:01 | 22.66264 | 113.79780 | 290 ft | 152 kts | 151° |
| 2026-04-16 00:02 | 22.65299 | 113.80314 | 76 ft | 155 kts | 151° |
| 2026-04-16 00:02 | 22.64401 | 113.80813 | 28 ft | 126 kts | 153° |
| 2026-04-16 00:02 | 22.63796 | 113.81139 | 28 ft | 50 kts | 151° |
| 2026-04-16 00:02 | 22.63557 | 113.81310 | 28 ft | 32 kts | 136° |
| 2026-04-16 00:03 | 22.63455 | 113.81455 | 28 ft | 16 kts | 107° |
| 2026-04-16 00:03 | 22.63484 | 113.81569 | 28 ft | 15 kts | 63° |
| 2026-04-16 00:03 | 22.63534 | 113.81675 | 28 ft | 15 kts | 63° |
| 2026-04-16 00:03 | 22.63614 | 113.81719 | 28 ft | 14 kts | 336° |
| 2026-04-16 00:04 | 22.63708 | 113.81667 | 28 ft | 15 kts | 333° |
| 2026-04-16 00:04 | 22.63803 | 113.81615 | 28 ft | 15 kts | 333° |
| 2026-04-16 00:04 | 22.63898 | 113.81564 | 28 ft | 15 kts | 333° |
| 2026-04-16 00:04 | 22.63966 | 113.81531 | 28 ft | 6 kts | 356° |
| 2026-04-16 00:05 | 22.63993 | 113.81562 | 28 ft | 6 kts | 64° |
| 2026-04-16 00:05 | 22.64008 | 113.81595 | 28 ft | 0 kts | 63° |